createdAt,value
2019-05-20T00:01:18.744Z,117.14
2019-05-20T00:04:23.892Z,117.43
2019-05-20T00:07:29.112Z,117.89
2019-05-20T00:10:34.315Z,118.13
2019-05-20T00:13:39.485Z,117.55
2019-05-20T00:16:46.753Z,117.49
2019-05-20T00:19:51.931Z,117.66
2019-05-20T00:22:57.142Z,117.71
2019-05-20T00:26:02.348Z,117.47
2019-05-20T00:29:08.600Z,117.66
2019-05-20T00:32:13.796Z,117.90
2019-05-20T00:35:19.017Z,117.71
2019-05-20T00:38:25.577Z,118.03
2019-05-20T00:41:32.372Z,118.16
2019-05-20T00:44:40.285Z,118.71
2019-05-20T00:47:45.410Z,118.32
2019-05-20T00:50:50.586Z,118.75
2019-05-20T00:53:55.744Z,119.00
2019-05-20T00:57:00.856Z,119.00
2019-05-20T01:00:07.043Z,119.00
2019-05-20T01:03:12.446Z,119.00
2019-05-20T01:06:17.561Z,119.00
2019-05-20T01:09:22.729Z,119.00
2019-05-20T01:12:27.847Z,119.00
2019-05-20T01:15:32.987Z,119.00
2019-05-20T01:18:38.607Z,119.00
2019-05-20T01:21:43.723Z,119.00
2019-05-20T01:24:48.861Z,119.00
2019-05-20T01:27:54.056Z,119.00
2019-05-20T01:30:59.381Z,119.00
2019-05-20T01:34:04.516Z,119.00
2019-05-20T01:37:09.686Z,119.00
2019-05-20T01:40:15.498Z,119.00
2019-05-20T01:43:22.856Z,119.00
2019-05-20T01:46:29.596Z,119.00
2019-05-20T01:49:34.806Z,119.00
2019-05-20T01:52:39.962Z,119.00
2019-05-20T01:55:48.402Z,119.00
2019-05-20T01:58:53.522Z,119.00
2019-05-20T02:01:58.715Z,119.00
2019-05-20T02:05:04.462Z,119.00
2019-05-20T02:08:09.762Z,119.00
2019-05-20T02:11:14.963Z,119.00
2019-05-20T02:14:23.034Z,119.00
2019-05-20T02:17:28.251Z,119.00
2019-05-20T02:20:33.369Z,119.00
2019-05-20T02:23:38.586Z,119.00
2019-05-20T02:26:43.737Z,119.00
2019-05-20T02:29:48.930Z,119.00
2019-05-20T02:32:54.141Z,119.00
2019-05-20T02:36:01.622Z,119.00
2019-05-20T02:39:07.454Z,119.00
2019-05-20T02:42:14.999Z,119.00
2019-05-20T02:45:20.144Z,119.00
2019-05-20T02:48:26.838Z,119.00
2019-05-20T02:51:32.044Z,119.00
2019-05-20T02:54:37.259Z,119.00
2019-05-20T02:57:45.539Z,119.00
2019-05-20T03:00:50.791Z,119.00
2019-05-20T03:04:10.833Z,119.00
2019-05-20T03:07:02.891Z,119.00
2019-05-20T03:10:14.223Z,119.00
2019-05-20T03:13:19.390Z,119.00
2019-05-20T03:16:24.684Z,119.00
2019-05-20T03:19:29.829Z,119.00
2019-05-20T03:22:35.003Z,119.00
2019-05-20T03:25:40.410Z,119.00
2019-05-20T03:28:45.600Z,119.00
2019-05-20T03:31:50.725Z,119.00
2019-05-20T03:34:59.785Z,119.00
2019-05-20T03:38:03.873Z,119.00
2019-05-20T03:41:09.044Z,119.00
2019-05-20T03:44:14.232Z,119.00
2019-05-20T03:47:19.443Z,119.00
2019-05-20T03:50:24.567Z,119.00
2019-05-20T03:53:29.789Z,119.00
2019-05-20T03:56:39.454Z,119.00
2019-05-20T03:59:43.508Z,119.00
2019-05-20T04:02:51.473Z,119.00
2019-05-20T04:05:56.590Z,119.00
2019-05-20T04:09:01.718Z,119.00
2019-05-20T04:12:07.071Z,119.00
2019-05-20T04:15:12.222Z,119.00
2019-05-20T04:18:17.358Z,119.00
2019-05-20T04:21:22.532Z,119.00
2019-05-20T04:24:27.752Z,119.00
2019-05-20T04:27:32.901Z,119.00
2019-05-20T04:30:38.073Z,119.00
2019-05-20T04:33:43.197Z,119.00
2019-05-20T04:36:48.413Z,119.00
2019-05-20T04:39:53.659Z,119.00
2019-05-20T04:42:58.818Z,119.00
2019-05-20T04:46:04.330Z,119.00
2019-05-20T04:49:09.500Z,119.00
2019-05-20T04:52:14.659Z,119.00
2019-05-20T04:55:19.869Z,119.00
2019-05-20T04:58:25.155Z,119.00
2019-05-20T05:01:34.379Z,119.00
2019-05-20T05:04:39.499Z,119.00
2019-05-20T05:07:46.251Z,119.00
2019-05-20T05:10:51.728Z,119.00
2019-05-20T05:13:56.902Z,119.00
2019-05-20T05:17:02.039Z,119.00
2019-05-20T05:20:17.503Z,118.66
2019-05-20T05:23:18.007Z,118.58
2019-05-20T05:26:23.124Z,117.18
2019-05-20T05:29:28.323Z,115.81
2019-05-20T05:32:43.502Z,113.34
2019-05-20T05:35:53.119Z,110.83
2019-05-20T05:38:56.114Z,112.16
2019-05-20T05:42:01.298Z,112.64
2019-05-20T05:45:08.179Z,112.42
2019-05-20T05:48:13.333Z,111.23
2019-05-20T05:51:18.529Z,111.41
2019-05-20T05:54:23.741Z,112.73
2019-05-20T05:57:28.944Z,111.58
2019-05-20T06:00:34.103Z,112.42
2019-05-20T06:03:39.324Z,112.30
2019-05-20T06:06:47.222Z,111.57
2019-05-20T06:09:53.947Z,111.95
2019-05-20T06:12:59.060Z,112.62
2019-05-20T06:16:06.708Z,112.63
2019-05-20T06:19:11.865Z,112.66
2019-05-20T06:22:18.029Z,114.61
2019-05-20T06:25:23.178Z,113.74
2019-05-20T06:28:31.383Z,113.49
2019-05-20T06:31:36.507Z,111.04
2019-05-20T06:34:42.982Z,111.14
2019-05-20T06:37:54.070Z,113.85
2019-05-20T06:41:00.912Z,112.47
2019-05-20T06:44:07.481Z,111.34
2019-05-20T06:47:12.657Z,113.72
2019-05-20T06:50:17.912Z,114.03
2019-05-20T06:53:23.057Z,112.79
2019-05-20T06:56:28.210Z,110.63
2019-05-20T06:59:34.625Z,109.97
2019-05-20T07:02:39.887Z,111.53
2019-05-20T07:05:45.068Z,110.93
2019-05-20T07:08:50.219Z,111.60
2019-05-20T07:11:55.369Z,111.21
2019-05-20T07:15:00.523Z,109.92
2019-05-20T07:18:06.321Z,110.89
2019-05-20T07:21:11.612Z,111.12
2019-05-20T07:24:16.903Z,111.85
2019-05-20T07:27:23.711Z,111.96
2019-05-20T07:30:32.089Z,113.03
2019-05-20T07:33:37.250Z,113.86
2019-05-20T07:36:42.463Z,111.63
2019-05-20T07:39:47.638Z,110.13
2019-05-20T07:42:52.815Z,111.71
2019-05-20T07:45:59.085Z,107.35
2019-05-20T07:49:04.426Z,108.04
2019-05-20T07:52:10.298Z,109.43
2019-05-20T07:55:15.643Z,104.03
2019-05-20T07:58:23.841Z,102.13
2019-05-20T08:01:29.153Z,104.07
2019-05-20T08:04:35.449Z,101.49
2019-05-20T08:07:51.889Z,96.63
2019-05-20T08:10:51.333Z,98.55
2019-05-20T08:13:56.600Z,99.14
2019-05-20T08:17:03.205Z,100.54
2019-05-20T08:20:08.813Z,100.40
2019-05-20T08:23:14.180Z,98.26
2019-05-20T08:26:19.360Z,99.40
2019-05-20T08:29:24.494Z,99.10
2019-05-20T08:32:29.756Z,98.43
2019-05-20T08:35:34.883Z,98.11
2019-05-20T08:38:40.135Z,95.57
2019-05-20T08:41:45.318Z,94.87
2019-05-20T08:44:52.151Z,94.29
2019-05-20T08:47:57.334Z,91.07
2019-05-20T08:51:02.505Z,92.67
2019-05-20T08:54:07.804Z,91.33
2019-05-20T08:57:12.993Z,97.18
2019-05-20T09:00:24.088Z,95.67
2019-05-20T09:03:31.855Z,93.35
2019-05-20T09:06:37.055Z,91.26
2019-05-20T09:09:42.259Z,92.49
2019-05-20T09:12:47.465Z,93.11
2019-05-20T09:15:52.732Z,93.80
2019-05-20T09:18:57.977Z,93.63
2019-05-20T09:22:03.171Z,99.78
2019-05-20T09:25:09.099Z,98.58
2019-05-20T09:28:14.503Z,95.73
2019-05-20T09:31:19.833Z,95.32
2019-05-20T09:34:25.827Z,93.80
2019-05-20T09:37:31.170Z,93.04
2019-05-20T09:40:38.699Z,97.33
2019-05-20T09:43:45.123Z,94.94
2019-05-20T09:46:52.136Z,91.61
2019-05-20T09:49:59.203Z,92.88
2019-05-20T09:53:07.132Z,94.46
2019-05-20T09:56:11.690Z,90.16
2019-05-20T09:59:16.899Z,90.99
2019-05-20T10:02:22.121Z,88.86
2019-05-20T10:05:27.256Z,90.67
2019-05-20T10:08:39.076Z,92.50
2019-05-20T10:11:40.430Z,92.05
2019-05-20T10:14:45.655Z,91.09
2019-05-20T10:17:51.118Z,93.75
2019-05-20T10:21:01.477Z,94.51
2019-05-20T10:24:08.650Z,95.61
2019-05-20T10:27:13.940Z,95.20
2019-05-20T10:30:19.850Z,92.05
2019-05-20T10:33:25.031Z,92.48
2019-05-20T10:36:31.817Z,93.94
2019-05-20T10:39:36.946Z,92.79
2019-05-20T10:42:42.135Z,86.82
2019-05-20T10:45:47.324Z,86.83
2019-05-20T10:48:52.553Z,84.97
2019-05-20T10:51:57.675Z,82.34
2019-05-20T10:55:02.930Z,80.67
2019-05-20T10:58:08.160Z,80.88
2019-05-20T11:01:13.402Z,80.32
2019-05-20T11:04:22.587Z,76.66
2019-05-20T11:07:27.769Z,77.74
2019-05-20T11:10:34.194Z,81.97
2019-05-20T11:13:39.413Z,76.94
2019-05-20T11:16:45.775Z,77.90
2019-05-20T11:19:50.854Z,79.38
2019-05-20T11:22:56.087Z,80.34
2019-05-20T11:26:01.325Z,79.50
2019-05-20T11:29:06.436Z,79.80
2019-05-20T11:32:11.611Z,79.90
2019-05-20T11:35:16.934Z,79.71
2019-05-20T11:38:22.254Z,79.77
2019-05-20T11:41:52.012Z,80.04
2019-05-20T11:44:37.414Z,80.05
2019-05-20T11:47:43.769Z,80.91
2019-05-20T11:50:49.015Z,81.72
2019-05-20T11:53:54.210Z,82.53
2019-05-20T11:57:01.332Z,85.54
2019-05-20T12:00:07.346Z,85.54
2019-05-20T12:03:14.220Z,84.75
2019-05-20T12:07:02.359Z,82.89
2019-05-20T12:10:33.069Z,87.04
2019-05-20T12:13:38.223Z,85.11
2019-05-20T12:16:43.375Z,85.64
2019-05-20T12:19:48.531Z,82.70
2019-05-20T12:22:53.737Z,81.86
2019-05-20T12:25:58.998Z,80.53
2019-05-20T12:29:05.544Z,80.05
2019-05-20T12:32:10.786Z,80.58
2019-05-20T12:35:17.410Z,82.40
2019-05-20T12:38:22.642Z,82.31
2019-05-20T12:41:27.979Z,81.54
2019-05-20T12:44:33.208Z,79.12
2019-05-20T12:47:38.495Z,75.23
2019-05-20T12:50:43.706Z,76.80
2019-05-20T12:53:49.030Z,74.49
2019-05-20T12:56:54.215Z,75.17
2019-05-20T12:59:59.490Z,75.96
2019-05-20T13:03:04.717Z,76.18
2019-05-20T13:06:09.908Z,75.96
2019-05-20T13:09:15.106Z,76.29
2019-05-20T13:12:20.373Z,76.55
2019-05-20T13:15:25.632Z,76.10
2019-05-20T13:18:30.880Z,77.26
2019-05-20T13:21:36.242Z,75.64
2019-05-20T13:24:41.672Z,75.32
2019-05-20T13:27:46.935Z,76.16
2019-05-20T13:30:52.237Z,74.53
2019-05-20T13:33:57.537Z,74.27
2019-05-20T13:37:04.480Z,73.14
2019-05-20T13:40:14.923Z,72.47
2019-05-20T13:43:20.324Z,70.82
2019-05-20T13:46:25.481Z,71.87
2019-05-20T13:49:30.782Z,72.21
2019-05-20T13:52:35.923Z,70.82
2019-05-20T13:55:41.116Z,68.95
2019-05-20T13:58:46.320Z,68.19
2019-05-20T14:01:51.585Z,70.53
2019-05-20T14:04:56.830Z,69.94
2019-05-20T14:08:02.034Z,67.64
2019-05-20T14:11:07.342Z,68.73
2019-05-20T14:14:14.242Z,68.44
2019-05-20T14:17:19.339Z,66.70
2019-05-20T14:20:24.577Z,68.73
2019-05-20T14:23:32.103Z,69.55
2019-05-20T14:26:39.491Z,70.66
2019-05-20T14:29:44.660Z,70.40
2019-05-20T14:32:49.918Z,70.41
2019-05-20T14:35:55.158Z,72.28
2019-05-20T14:39:00.435Z,72.32
2019-05-20T14:42:05.727Z,71.62
2019-05-20T14:45:11.098Z,70.03
2019-05-20T14:48:16.373Z,70.15
2019-05-20T14:51:21.575Z,70.43
2019-05-20T14:54:26.876Z,70.02
2019-05-20T14:57:32.023Z,69.99
2019-05-20T15:00:37.310Z,70.72
2019-05-20T15:03:42.563Z,71.37
2019-05-20T15:06:47.811Z,71.30
2019-05-20T15:09:53.007Z,70.88
2019-05-20T15:12:58.167Z,71.18
2019-05-20T15:16:03.453Z,69.68
2019-05-20T15:19:08.776Z,72.12
2019-05-20T15:22:13.997Z,71.18
2019-05-20T15:25:19.204Z,73.85
2019-05-20T15:28:24.509Z,74.44
2019-05-20T15:31:29.668Z,75.54
2019-05-20T15:34:34.987Z,75.61
2019-05-20T15:37:43.052Z,77.26
2019-05-20T15:40:47.087Z,76.32
2019-05-20T15:43:57.992Z,74.23
2019-05-20T15:47:03.165Z,76.68
2019-05-20T15:50:10.764Z,77.41
2019-05-20T15:53:16.111Z,74.97
2019-05-20T15:56:21.373Z,75.99
2019-05-20T15:59:26.578Z,89.07
2019-05-20T16:02:32.003Z,102.98
2019-05-20T16:05:37.277Z,114.06
2019-05-20T16:08:42.407Z,116.38
2019-05-20T16:11:47.722Z,119.00
2019-05-20T16:14:52.905Z,119.00
2019-05-20T16:17:58.179Z,119.00
2019-05-20T16:21:03.494Z,119.00
2019-05-20T16:24:12.735Z,119.00
2019-05-20T16:27:18.152Z,119.00
2019-05-20T16:30:24.986Z,119.00
2019-05-20T16:33:30.370Z,119.00
2019-05-20T16:36:35.578Z,119.00
2019-05-20T16:39:40.767Z,119.00
2019-05-20T16:42:45.924Z,119.00
2019-05-20T16:45:53.953Z,119.00
2019-05-20T16:48:59.396Z,119.00
2019-05-20T16:52:04.624Z,119.00
2019-05-20T16:55:10.667Z,119.00
2019-05-20T16:58:15.852Z,119.00
2019-05-20T17:01:21.028Z,119.00
2019-05-20T17:04:26.222Z,119.00
2019-05-20T17:07:31.506Z,119.00
2019-05-20T17:10:41.512Z,119.00
2019-05-20T17:13:43.727Z,119.00
2019-05-20T17:16:56.272Z,119.00
2019-05-20T17:20:01.516Z,119.00
2019-05-20T17:23:07.815Z,119.00
2019-05-20T17:26:17.148Z,119.00
2019-05-20T17:29:22.512Z,119.00
2019-05-20T17:32:32.163Z,119.00
2019-05-20T17:35:37.386Z,119.00
2019-05-20T17:38:45.325Z,119.00
2019-05-20T17:41:52.554Z,119.00
2019-05-20T17:44:57.876Z,119.00
2019-05-20T17:48:03.053Z,119.00
2019-05-20T17:51:08.333Z,119.00
2019-05-20T17:54:13.632Z,119.00
2019-05-20T17:57:18.827Z,118.49
2019-05-20T18:00:24.184Z,117.67
2019-05-20T18:03:30.707Z,117.17
2019-05-20T18:06:36.173Z,116.49
2019-05-20T18:09:44.955Z,115.65
2019-05-20T18:12:56.331Z,114.66
2019-05-20T18:16:01.618Z,112.18
2019-05-20T18:19:06.834Z,111.76
2019-05-20T18:22:11.983Z,110.25
2019-05-20T18:25:17.141Z,109.07
2019-05-20T18:28:22.358Z,109.89
2019-05-20T18:31:32.260Z,109.40
2019-05-20T18:34:34.467Z,108.57
2019-05-20T18:37:41.221Z,108.57
2019-05-20T18:40:46.551Z,109.31
2019-05-20T18:43:51.834Z,108.90
2019-05-20T18:46:59.423Z,109.06
2019-05-20T18:50:05.237Z,108.24
2019-05-20T18:53:12.718Z,108.87
2019-05-20T18:56:17.889Z,109.24
2019-05-20T18:59:23.087Z,109.55
2019-05-20T19:02:30.843Z,109.87
2019-05-20T19:05:36.063Z,109.73
2019-05-20T19:08:41.254Z,109.41
2019-05-20T19:11:46.439Z,109.12
2019-05-20T19:14:51.691Z,109.73
2019-05-20T19:17:56.866Z,110.09
2019-05-20T19:21:02.160Z,109.56
2019-05-20T19:24:08.341Z,109.44
2019-05-20T19:27:13.598Z,110.01
2019-05-20T19:30:18.925Z,109.92
2019-05-20T19:33:29.423Z,109.81
2019-05-20T19:36:33.222Z,110.18
2019-05-20T19:39:38.572Z,110.69
2019-05-20T19:42:43.863Z,110.92
2019-05-20T19:45:49.104Z,111.02
2019-05-20T19:48:54.343Z,110.57
2019-05-20T19:52:06.777Z,110.34
2019-05-20T19:55:29.825Z,110.73
2019-05-20T19:58:35.059Z,111.16
2019-05-20T20:01:40.363Z,111.76
2019-05-20T20:04:45.624Z,113.70
2019-05-20T20:07:50.933Z,114.03
2019-05-20T20:10:56.238Z,114.11
2019-05-20T20:14:03.032Z,114.14
2019-05-20T20:17:08.343Z,114.81
2019-05-20T20:20:13.815Z,115.02
2019-05-20T20:23:23.767Z,115.18
2019-05-20T20:26:25.891Z,114.62
2019-05-20T20:29:33.592Z,115.11
2019-05-20T20:32:40.204Z,114.94
2019-05-20T20:35:45.483Z,114.96
2019-05-20T20:38:50.652Z,115.38
2019-05-20T20:41:55.950Z,115.88
2019-05-20T20:45:01.356Z,114.57
2019-05-20T20:48:06.632Z,115.04
2019-05-20T20:51:11.816Z,114.76
2019-05-20T20:54:17.074Z,115.85
2019-05-20T20:57:22.364Z,116.04
2019-05-20T21:00:27.525Z,116.71
2019-05-20T21:03:32.746Z,117.00
2019-05-20T21:06:37.977Z,116.84
2019-05-20T21:09:43.167Z,116.88
2019-05-20T21:12:48.379Z,116.68
2019-05-20T21:15:53.588Z,117.09
2019-05-20T21:18:58.764Z,116.56
2019-05-20T21:22:04.025Z,115.91
2019-05-20T21:25:09.436Z,115.63
2019-05-20T21:28:16.797Z,115.56
2019-05-20T21:31:22.015Z,115.72
2019-05-20T21:34:30.283Z,115.59
2019-05-20T21:37:35.467Z,116.17
2019-05-20T21:40:40.660Z,116.38
2019-05-20T21:43:45.799Z,116.02
2019-05-20T21:47:11.869Z,115.80
2019-05-20T21:50:17.039Z,116.10
2019-05-20T21:53:22.236Z,117.39
2019-05-20T21:56:27.453Z,118.64
2019-05-20T21:59:32.620Z,119.00
2019-05-20T22:02:40.118Z,119.00
2019-05-20T22:05:46.472Z,119.00
2019-05-20T22:08:51.637Z,119.00
2019-05-20T22:11:56.768Z,119.00
2019-05-20T22:15:02.862Z,119.00
2019-05-20T22:18:08.114Z,119.00
2019-05-20T22:21:14.942Z,119.00
2019-05-20T22:24:27.433Z,119.00
2019-05-20T22:27:32.595Z,119.00
2019-05-20T22:30:37.753Z,119.00
2019-05-20T22:33:42.931Z,119.00
2019-05-20T22:36:48.185Z,119.00
2019-05-20T22:39:53.294Z,119.00
2019-05-20T22:42:58.408Z,119.00
2019-05-20T22:46:03.605Z,119.00
2019-05-20T22:49:08.812Z,119.00
2019-05-20T22:52:13.985Z,119.00
2019-05-20T22:55:19.159Z,119.00
2019-05-20T22:58:24.323Z,119.00
2019-05-20T23:01:29.474Z,119.00
2019-05-20T23:04:34.603Z,119.00
2019-05-20T23:07:39.768Z,119.00
2019-05-20T23:10:45.015Z,119.00
2019-05-20T23:13:50.252Z,119.00
2019-05-20T23:17:05.925Z,119.00
2019-05-20T23:20:06.005Z,119.00
2019-05-20T23:23:13.277Z,119.00
2019-05-20T23:26:18.405Z,119.00
2019-05-20T23:29:23.619Z,119.00
2019-05-20T23:32:28.775Z,119.00
2019-05-20T23:35:33.999Z,119.00
2019-05-20T23:38:39.154Z,119.00
2019-05-20T23:41:44.285Z,119.00
2019-05-20T23:44:49.433Z,119.00
2019-05-20T23:47:54.588Z,119.00
2019-05-20T23:50:59.806Z,119.00
2019-05-20T23:54:04.969Z,119.00
2019-05-20T23:57:10.104Z,119.00
